Time;durP1;ratioP1;P1;durP2;ratioP2;P2;SDS_P1;SDS_P2;PMS_P1;PMS_P2;Temp;Humidity;BMP_temperature;BMP_pressure;BME280_temperature;BME280_humidity;BME280_pressure;Samples;Min_cycle;Max_cycle;Signal;HPM_P1;HPM_P2
2022/05/29 00:02:09;;;;;;;10.60;3.17;;;;;;;9.23;69.83;101768.94;6273743;22;20012;-81
2022/05/29 00:04:35;;;;;;;6.97;2.50;;;;;;;9.25;69.29;101772.34;6273371;22;20007;-81
2022/05/29 00:07:03;;;;;;;8.18;2.90;;;;;;;9.15;69.48;101771.16;6247463;22;20011;-80
2022/05/29 00:09:33;;;;;;;8.48;2.83;;;;;;;9.11;70.06;101765.19;6273870;22;20048;-81
2022/05/29 00:12:00;;;;;;;6.40;2.55;;;;;;;9.11;70.51;101769.59;6273377;22;20007;-82
2022/05/29 00:14:26;;;;;;;9.15;2.72;;;;;;;9.04;70.36;101764.66;6273644;22;20008;-81
2022/05/29 00:16:52;;;;;;;8.32;2.50;;;;;;;9.06;70.40;101759.28;6274086;22;20068;-81
2022/05/29 00:19:17;;;;;;;10.35;3.25;;;;;;;9.05;70.70;101769.00;6275484;22;19992;-80
2022/05/29 00:21:42;;;;;;;8.18;3.20;;;;;;;8.98;70.27;101765.00;6275498;22;20009;-81
2022/05/29 00:24:08;;;;;;;10.18;3.25;;;;;;;8.98;70.50;101764.16;6275448;22;20001;-81
2022/05/29 00:26:34;;;;;;;8.95;3.10;;;;;;;8.98;70.54;101761.50;6275485;22;20015;-81
2022/05/29 00:28:59;;;;;;;6.13;2.88;;;;;;;8.97;70.51;101757.97;6275221;22;20009;-82
2022/05/29 00:31:24;;;;;;;8.07;3.17;;;;;;;8.93;70.98;101755.59;6275379;22;20011;-82
2022/05/29 00:33:50;;;;;;;8.15;3.50;;;;;;;8.91;70.53;101758.34;6275237;22;20088;-81
2022/05/29 00:36:16;;;;;;;9.68;3.03;;;;;;;8.92;71.02;101749.41;6275014;22;20003;-81
2022/05/29 00:38:43;;;;;;;13.43;3.47;;;;;;;8.85;70.46;101751.56;6275077;22;20008;-81
2022/05/29 00:41:21;;;;;;;7.78;3.28;;;;;;;8.84;70.72;101743.69;6274762;22;19992;-81
2022/05/29 00:44:03;;;;;;;8.18;3.00;;;;;;;8.80;70.57;101747.47;6275097;22;20038;-82
2022/05/29 00:46:30;;;;;;;8.20;2.90;;;;;;;8.72;71.75;101747.03;6275116;23;20063;-82
2022/05/29 00:48:55;;;;;;;9.88;3.35;;;;;;;8.76;71.66;101737.94;6275244;22;20004;-82
2022/05/29 00:51:23;;;;;;;11.00;3.30;;;;;;;8.72;71.72;101731.97;6275101;22;19992;-80
2022/05/29 00:53:50;;;;;;;7.55;3.42;;;;;;;8.70;72.29;101731.22;6274114;22;20079;-82
2022/05/29 00:56:16;;;;;;;10.88;3.42;;;;;;;8.72;71.79;101725.84;6275036;22;20009;-80
2022/05/29 00:58:43;;;;;;;10.40;3.30;;;;;;;8.72;71.84;101728.47;6274799;22;19996;-80
2022/05/29 01:01:09;;;;;;;6.55;3.25;;;;;;;8.68;71.78;101726.00;6274441;22;20009;-81
2022/05/29 01:03:34;;;;;;;7.88;3.33;;;;;;;8.69;72.26;101725.06;6274820;22;19991;-81
2022/05/29 01:05:59;;;;;;;8.30;3.50;;;;;;;8.70;72.15;101725.91;6274879;22;20000;-80
2022/05/29 01:08:29;;;;;;;10.60;3.70;;;;;;;8.64;72.81;101724.47;6274851;22;20282;-81
2022/05/29 01:11:16;;;;;;;9.43;3.50;;;;;;;8.68;73.08;101720.69;6274807;22;20321;-81
2022/05/29 01:13:58;;;;;;;12.32;3.38;;;;;;;8.71;73.12;101717.03;6274797;22;20044;-81
2022/05/29 01:16:34;;;;;;;11.23;3.53;;;;;;;8.70;73.02;101716.16;6274795;22;19989;-81
2022/05/29 01:19:46;;;;;;;8.30;3.53;;;;;;;8.75;72.46;101713.28;6274787;22;20064;-81
2022/05/29 01:22:26;;;;;;;9.05;3.55;;;;;;;8.72;73.65;101709.94;6274926;22;19992;-80
2022/05/29 01:24:57;;;;;;;8.13;3.67;;;;;;;8.70;73.87;101705.56;6274799;22;20020;-81
2022/05/29 01:27:53;;;;;;;8.65;3.45;;;;;;;8.78;73.49;101712.25;6274975;22;19988;-81
2022/05/29 01:30:24;;;;;;;12.05;3.35;;;;;;;8.76;73.58;101701.75;6248940;22;20012;-81
2022/05/29 01:33:04;;;;;;;7.68;3.63;;;;;;;8.78;74.00;101709.63;6274532;22;19988;-82
2022/05/29 01:35:33;;;;;;;;;;;;;;;8.86;70.68;101704.75;6275461;22;20004;-80
2022/05/29 01:38:21;;;;;;;;;;;;;;;8.88;70.13;101706.34;6275056;22;19896;-80
2022/05/29 01:40:53;;;;;;;8.25;3.33;;;;;;;8.78;73.68;101699.88;6274843;22;19903;-81
2022/05/29 01:43:40;;;;;;;10.25;3.63;;;;;;;8.78;72.89;101694.56;6274694;22;19995;-81
2022/05/29 01:46:29;;;;;;;9.50;3.67;;;;;;;8.73;74.09;101698.38;6274635;22;20036;-81
2022/05/29 01:49:16;;;;;;;8.40;2.83;;;;;;;8.75;73.07;101691.25;6274750;22;20053;-81
2022/05/29 01:52:02;;;;;;;11.45;3.70;;;;;;;8.72;72.85;101688.75;6274183;22;19999;-81
2022/05/29 01:54:38;;;;;;;8.63;3.42;;;;;;;8.67;73.75;101687.19;6274478;22;20011;-81
2022/05/29 01:57:16;;;;;;;6.25;2.75;;;;;;;8.66;73.25;101684.63;6274523;22;19993;-80
2022/05/29 01:59:48;;;;;;;9.20;3.33;;;;;;;8.62;73.89;101689.25;6274695;22;20003;-81
2022/05/29 02:02:20;;;;;;;6.32;2.83;;;;;;;8.57;73.47;101675.41;6248408;23;19994;-80
2022/05/29 02:04:50;;;;;;;7.43;2.90;;;;;;;8.59;73.83;101683.25;6274591;22;20023;-82
2022/05/29 02:10:16;;;;;;;6.78;3.60;;;;;;;8.51;73.59;101676.59;6274701;22;20011;-80
2022/05/29 02:12:49;;;;;;;7.07;3.17;;;;;;;8.45;74.15;101671.63;6248538;23;19988;-80
2022/05/29 02:15:19;;;;;;;6.97;2.97;;;;;;;8.41;74.14;101666.56;6274567;22;20022;-81
2022/05/29 02:17:50;;;;;;;9.02;3.05;;;;;;;8.40;74.34;101678.09;6248179;23;20055;-81
2022/05/29 02:20:23;;;;;;;7.15;2.90;;;;;;;8.34;74.42;101666.91;6274357;23;20018;-81
2022/05/29 02:22:52;;;;;;;8.35;3.28;;;;;;;8.37;74.37;101672.97;6274150;22;20023;-81
2022/05/29 02:25:22;;;;;;;12.00;3.53;;;;;;;8.36;74.51;101672.13;6273671;23;20027;-81
2022/05/29 02:28:05;;;;;;;6.53;2.67;;;;;;;8.36;74.66;101666.81;6273828;22;19996;-81
2022/05/29 02:31:01;;;;;;;6.63;2.85;;;;;;;8.40;73.68;101665.72;6273915;23;19996;-81
2022/05/29 02:33:50;;;;;;;8.23;3.20;;;;;;;8.38;74.19;101659.66;6273592;22;20004;-81
2022/05/29 02:36:39;;;;;;;6.03;3.05;;;;;;;8.38;73.77;101664.09;6274293;23;19999;-79
2022/05/29 02:39:19;;;;;;;7.97;3.17;;;;;;;8.37;74.06;101662.38;6201111;22;19992;-81
2022/05/29 02:41:53;;;;;;;9.63;3.58;;;;;;;8.31;74.85;101658.25;6274463;22;19988;-80
2022/05/29 02:44:33;;;;;;;4.45;2.70;;;;;;;8.28;74.98;101653.16;6274249;22;20003;-80
2022/05/29 02:47:15;;;;;;;8.65;3.13;;;;;;;8.29;74.49;101658.38;6274313;22;19989;-80
2022/05/29 02:50:07;;;;;;;5.82;2.55;;;;;;;8.28;74.53;101661.09;6274147;22;19985;-79
2022/05/29 02:52:33;;;;;;;9.48;2.75;;;;;;;8.27;74.92;101652.28;6253335;22;20019;-81
2022/05/29 02:54:58;;;;;;;9.23;3.15;;;;;;;8.24;74.93;101647.13;6274184;22;19992;-82
2022/05/29 02:57:23;;;;;;;9.18;3.22;;;;;;;8.25;74.91;101651.50;6248277;22;19999;-82
2022/05/29 03:00:02;;;;;;;12.15;3.88;;;;;;;8.28;74.94;101651.34;6274018;22;20024;-81
2022/05/29 03:02:44;;;;;;;6.38;3.00;;;;;;;8.25;74.71;101648.88;6248399;22;20014;-81
2022/05/29 03:05:36;;;;;;;8.80;3.08;;;;;;;8.21;75.00;101647.34;6274282;22;19999;-80
2022/05/29 03:08:21;;;;;;;6.45;3.30;;;;;;;8.24;74.98;101646.28;6274191;22;19997;-81
2022/05/29 03:10:57;;;;;;;8.73;2.88;;;;;;;8.22;75.22;101645.53;6274080;22;20015;-82
2022/05/29 03:13:35;;;;;;;8.60;3.15;;;;;;;8.23;75.72;101644.59;6274247;22;19996;-82
2022/05/29 03:16:24;;;;;;;10.30;3.35;;;;;;;8.23;75.24;101642.81;6273949;22;20000;-82
2022/05/29 03:19:01;;;;;;;7.32;3.22;;;;;;;8.22;75.88;101641.09;6274197;22;20004;-82
2022/05/29 03:21:41;;;;;;;6.60;2.75;;;;;;;8.24;75.50;101638.34;6274203;22;20007;-82
2022/05/29 03:24:23;;;;;;;10.32;3.30;;;;;;;8.29;75.72;101633.66;6274961;22;20038;-81
2022/05/29 03:27:02;;;;;;;10.50;3.13;;;;;;;8.33;75.34;101633.44;6276123;22;19991;-82
2022/05/29 03:29:37;;;;;;;7.18;3.13;;;;;;;8.37;75.77;101635.91;6275824;22;19995;-82
2022/05/29 03:32:04;;;;;;;7.43;3.22;;;;;;;8.38;76.28;101635.81;6275561;22;21238;-80
2022/05/29 03:34:29;;;;;;;10.02;2.97;;;;;;;8.41;75.92;101635.66;6275082;22;19996;-81
2022/05/29 03:36:54;;;;;;;7.90;3.55;;;;;;;8.44;76.24;101632.00;6275442;22;19996;-81
2022/05/29 03:39:20;;;;;;;7.72;2.58;;;;;;;8.47;76.15;101626.53;6275944;22;19992;-82
2022/05/29 03:41:49;;;;;;;7.72;2.78;;;;;;;8.49;75.96;101622.00;6275968;22;20008;-82
2022/05/29 03:44:18;;;;;;;5.43;2.75;;;;;;;8.51;75.59;101620.16;6275843;22;20035;-80
2022/05/29 03:46:44;;;;;;;8.75;3.20;;;;;;;8.54;76.05;101622.63;6275895;22;20022;-81
2022/05/29 03:49:14;;;;;;;9.65;3.35;;;;;;;8.51;76.68;101617.50;6275644;22;20024;-81
2022/05/29 03:51:40;;;;;;;7.15;3.00;;;;;;;8.56;76.57;101618.09;6274419;22;20000;-81
2022/05/29 03:54:06;;;;;;;12.27;3.53;;;;;;;8.59;76.56;101614.41;6273840;22;20056;-81
2022/05/29 03:56:31;;;;;;;12.68;3.53;;;;;;;8.58;77.45;101612.72;6273776;22;20000;-81
2022/05/29 03:58:57;;;;;;;10.00;3.50;;;;;;;8.61;77.06;101608.09;6273699;22;20007;-81
2022/05/29 04:01:23;;;;;;;9.45;3.40;;;;;;;8.62;76.38;101604.50;6274299;22;19999;-82
2022/05/29 04:03:49;;;;;;;9.38;3.30;;;;;;;8.64;76.86;101604.41;6248087;22;20005;-82
2022/05/29 04:06:14;;;;;;;9.80;3.45;;;;;;;8.62;76.85;101601.84;6273970;22;20002;-81
2022/05/29 04:14:08;;;;;;;9.43;3.08;;;;;;;8.69;76.87;101603.25;6275398;22;20007;-82
2022/05/29 04:16:33;;;;;;;9.30;3.58;;;;;;;8.73;76.73;101603.91;6275651;22;19996;-81
2022/05/29 04:18:59;;;;;;;9.25;3.38;;;;;;;8.76;76.85;101602.88;6275443;22;20015;-81
2022/05/29 04:21:24;;;;;;;11.95;3.67;;;;;;;8.80;77.28;101604.41;6275554;22;19992;-81
2022/05/29 04:23:49;;;;;;;8.60;3.33;;;;;;;8.81;77.11;101600.81;6275257;22;19991;-81
2022/05/29 04:26:16;;;;;;;7.38;2.95;;;;;;;8.87;77.04;101598.66;6275274;22;20093;-81
2022/05/29 04:28:42;;;;;;;8.00;2.97;;;;;;;8.91;76.84;101599.38;6275382;22;19994;-81
2022/05/29 04:31:07;;;;;;;7.15;3.15;;;;;;;8.93;76.99;101597.47;6275561;22;19992;-81
2022/05/29 04:33:32;;;;;;;10.40;3.42;;;;;;;8.95;77.37;101594.75;6275564;22;19999;-80
2022/05/29 04:35:58;;;;;;;11.32;3.58;;;;;;;8.98;77.19;101600.72;6248597;23;20004;-81
2022/05/29 04:38:24;;;;;;;7.17;2.90;;;;;;;9.03;77.38;101611.91;6249317;23;19996;-81
2022/05/29 04:40:50;;;;;;;12.65;3.53;;;;;;;9.03;78.80;101613.69;6274800;22;20781;-81
2022/05/29 04:43:15;;;;;;;13.88;3.63;;;;;;;9.04;80.42;101616.25;6269971;23;20014;-81
2022/05/29 04:45:46;;;;;;;16.88;4.25;;;;;;;9.05;79.72;101615.31;6255723;23;20031;-80
2022/05/29 04:48:13;;;;;;;13.95;3.90;;;;;;;9.10;80.98;101622.16;6252558;23;20382;-81
2022/05/29 04:50:39;;;;;;;13.38;4.25;;;;;;;9.09;81.21;101621.28;6252529;23;20031;-82
2022/05/29 04:53:05;;;;;;;9.27;3.80;;;;;;;9.07;81.63;101618.72;6252829;22;20000;-83
2022/05/29 04:55:31;;;;;;;11.82;4.18;;;;;;;9.07;82.09;101616.06;6251452;23;20333;-83
2022/05/29 04:57:56;;;;;;;7.80;3.88;;;;;;;9.06;82.44;101616.19;6250993;23;20008;-83
2022/05/29 05:00:22;;;;;;;10.52;4.03;;;;;;;9.07;82.00;101610.75;6250171;23;20000;-83
2022/05/29 05:02:47;;;;;;;11.52;4.25;;;;;;;9.07;83.28;101610.75;6250342;23;20078;-83
2022/05/29 05:05:13;;;;;;;10.32;3.90;;;;;;;9.09;82.62;101602.72;6222735;23;20008;-83
2022/05/29 05:07:39;;;;;;;11.57;3.70;;;;;;;9.08;81.66;101608.97;6251187;23;20034;-83
2022/05/29 05:10:10;;;;;;;9.70;4.25;;;;;;;9.10;83.66;101606.25;6249391;23;20058;-83
2022/05/29 05:12:35;;;;;;;6.13;3.47;;;;;;;9.11;82.96;101600.88;6250662;23;20008;-82
2022/05/29 05:15:00;;;;;;;9.88;4.15;;;;;;;9.12;84.73;101591.94;6250231;23;19997;-82
2022/05/29 05:17:26;;;;;;;6.22;3.50;;;;;;;9.13;82.87;101596.31;6250119;23;20027;-82
2022/05/29 05:19:51;;;;;;;10.55;4.15;;;;;;;9.14;84.59;101595.34;6249163;23;20004;-83
2022/05/29 05:22:17;;;;;;;11.80;4.47;;;;;;;9.16;84.20;101596.16;6249796;23;20011;-83
2022/05/29 05:24:42;;;;;;;9.20;4.10;;;;;;;9.20;84.69;101596.81;6248999;23;20004;-82
2022/05/29 05:27:08;;;;;;;10.02;3.92;;;;;;;9.20;84.24;101587.06;6248601;23;20425;-82
2022/05/29 05:29:33;;;;;;;9.63;3.90;;;;;;;9.23;84.18;101592.19;6249072;23;20008;-82
2022/05/29 05:31:59;;;;;;;10.32;4.00;;;;;;;9.24;83.96;101590.38;6249718;23;20007;-82
2022/05/29 05:34:24;;;;;;;11.02;3.88;;;;;;;9.26;84.96;101585.84;6248599;23;20004;-83
2022/05/29 05:36:50;;;;;;;8.32;4.22;;;;;;;9.31;84.10;101585.56;6248267;23;20039;-82
2022/05/29 05:39:15;;;;;;;14.27;4.20;;;;;;;9.33;84.05;101586.34;6257759;23;20027;-81
2022/05/29 05:41:40;;;;;;;12.00;4.13;;;;;;;9.35;84.54;101585.28;6222606;23;20239;-82
2022/05/29 05:44:06;;;;;;;8.17;3.83;;;;;;;9.37;84.04;101591.34;6250723;23;20414;-84
2022/05/29 05:46:31;;;;;;;10.10;3.92;;;;;;;9.41;84.59;101590.25;6260340;23;20219;-82
2022/05/29 05:48:57;;;;;;;9.90;3.65;;;;;;;9.45;83.75;101593.56;6247340;23;19999;-82
2022/05/29 05:51:23;;;;;;;12.15;4.38;;;;;;;9.48;83.96;101581.94;6265427;23;20338;-82
2022/05/29 05:53:48;;;;;;;10.38;4.45;;;;;;;9.50;84.52;101588.81;6249821;22;20083;-83
2022/05/29 05:56:15;;;;;;;8.82;3.75;;;;;;;9.53;83.39;101593.94;6251500;23;20007;-82
2022/05/29 05:58:43;;;;;;;11.88;3.80;;;;;;;9.57;84.22;101584.84;6252446;23;20000;-83
2022/05/29 06:01:16;;;;;;;10.65;4.03;;;;;;;9.56;85.44;101582.28;6251589;23;20418;-83
2022/05/29 06:03:42;;;;;;;7.20;3.45;;;;;;;9.61;84.13;101583.72;6251849;23;20007;-84
2022/05/29 06:06:07;;;;;;;8.23;3.83;;;;;;;9.62;82.94;101580.13;6251852;23;20015;-84
2022/05/29 06:08:34;;;;;;;12.50;4.38;;;;;;;9.68;84.33;101589.53;6250028;23;20004;-83
2022/05/29 06:10:59;;;;;;;10.63;4.35;;;;;;;9.73;85.15;101586.59;6250249;23;20000;-83
2022/05/29 06:13:25;;;;;;;5.55;3.38;;;;;;;9.72;84.06;101591.03;6255194;23;20006;-83
2022/05/29 06:15:58;;;;;;;9.95;3.72;;;;;;;9.77;84.24;101588.09;6264923;23;19992;-83
2022/05/29 06:18:34;;;;;;;10.85;3.75;;;;;;;9.80;84.36;101586.09;6238576;23;20005;-79
2022/05/29 06:21:02;;;;;;;10.57;3.60;;;;;;;9.87;84.00;101585.72;6255206;23;20054;-80
2022/05/29 06:23:28;;;;;;;8.70;3.80;;;;;;;9.94;84.27;101579.97;6255117;23;20024;-80
2022/05/29 06:25:54;;;;;;;12.38;3.88;;;;;;;9.98;84.40;101580.63;6261230;22;20027;-82
2022/05/29 06:28:20;;;;;;;10.73;3.80;;;;;;;10.07;85.16;101580.03;6240205;23;20019;-81
2022/05/29 06:30:45;;;;;;;8.90;4.07;;;;;;;10.13;86.25;101582.31;6270907;22;20067;-82
2022/05/29 06:33:12;;;;;;;7.75;3.42;;;;;;;10.19;84.43;101581.94;6245648;23;19997;-81
2022/05/29 06:35:46;;;;;;;8.70;3.75;;;;;;;10.25;85.75;101580.69;6273460;22;20003;-82
2022/05/29 06:38:12;;;;;;;9.48;3.75;;;;;;;10.37;84.97;101581.72;6273553;22;19996;-82
2022/05/29 06:40:42;;;;;;;10.10;4.13;;;;;;;10.40;85.52;101580.69;6268171;23;20012;-81
2022/05/29 06:43:11;;;;;;;8.32;3.20;;;;;;;10.50;84.93;101573.84;6247001;22;19996;-81
2022/05/29 06:45:36;;;;;;;10.65;4.38;;;;;;;10.61;84.74;101578.44;6245742;23;20011;-81
2022/05/29 06:48:08;;;;;;;8.90;3.53;;;;;;;10.71;84.78;101584.88;6272138;22;20019;-80
2022/05/29 06:50:37;;;;;;;10.32;3.53;;;;;;;10.76;83.60;101576.59;6246683;22;20056;-80
2022/05/29 06:53:02;;;;;;;6.80;3.55;;;;;;;10.83;83.29;101577.91;6221826;23;19992;-81
2022/05/29 06:55:28;;;;;;;9.00;3.20;;;;;;;10.92;84.58;101580.81;6246760;22;20019;-80
2022/05/29 06:57:53;;;;;;;6.63;3.30;;;;;;;11.02;86.18;101582.84;6273656;22;19992;-82
2022/05/29 07:08:46;;;;;;;8.40;3.22;;;;;;;11.29;83.03;101574.81;6274522;22;20007;-81
2022/05/29 07:11:22;;;;;;;11.02;3.05;;;;;;;11.30;81.35;101576.50;6247948;22;20012;-82
2022/05/29 07:13:48;;;;;;;12.85;3.78;;;;;;;11.34;81.46;101580.69;6273976;22;19992;-83
2022/05/29 07:16:16;;;;;;;5.43;3.03;;;;;;;11.42;81.19;101569.50;6248047;22;19988;-83
2022/05/29 07:18:42;;;;;;;8.82;3.35;;;;;;;11.53;81.78;101574.09;6275416;22;19992;-81
2022/05/29 07:21:07;;;;;;;9.30;3.08;;;;;;;11.65;81.42;101571.41;6275025;22;20003;-82
2022/05/29 07:23:34;;;;;;;10.85;3.20;;;;;;;11.71;81.87;101559.50;6274728;22;20044;-82
2022/05/29 07:26:00;;;;;;;13.25;3.03;;;;;;;11.82;82.07;101564.06;6274332;22;20143;-82
2022/05/29 07:28:27;;;;;;;8.30;3.28;;;;;;;11.93;81.20;101558.03;6273652;22;20003;-82
2022/05/29 07:30:55;;;;;;;9.35;3.30;;;;;;;11.98;81.81;101564.72;6274129;22;20043;-81
2022/05/29 07:33:21;;;;;;;8.85;3.25;;;;;;;12.08;80.17;101570.25;6247060;22;20000;-81
2022/05/29 07:35:47;;;;;;;5.25;2.83;;;;;;;12.17;79.49;101558.06;6274453;22;20012;-80
2022/05/29 07:38:13;;;;;;;10.10;3.28;;;;;;;12.16;78.48;101559.06;6247237;22;20677;-81
2022/05/29 07:40:38;;;;;;;7.72;2.83;;;;;;;12.21;77.82;101556.91;6274023;22;20022;-81
2022/05/29 07:43:20;;;;;;;8.70;3.05;;;;;;;12.28;77.48;101558.16;6273766;22;19992;-79
2022/05/29 07:45:56;;;;;;;7.63;2.60;;;;;;;12.40;76.87;101557.25;6273509;22;19996;-80
2022/05/29 07:48:25;;;;;;;4.93;2.60;;;;;;;12.50;78.14;101551.25;6273958;22;20015;-81
2022/05/29 07:50:51;;;;;;;8.82;2.83;;;;;;;12.62;77.21;101560.16;6247293;23;20003;-80
2022/05/29 07:53:17;;;;;;;9.57;2.60;;;;;;;12.74;77.27;101554.78;6248176;22;19992;-79
2022/05/29 07:55:43;;;;;;;8.00;2.75;;;;;;;12.79;77.56;101551.78;6272542;22;20015;-79
2022/05/29 07:58:09;;;;;;;6.70;2.97;;;;;;;12.90;77.23;101553.63;6269568;22;19992;-79
2022/05/29 08:00:35;;;;;;;10.57;2.58;;;;;;;12.92;75.93;101549.03;6272335;22;19988;-80
2022/05/29 08:03:01;;;;;;;23.58;6.35;;;;;;;13.00;76.37;101548.47;6274176;22;20003;-81
2022/05/29 08:05:29;;;;;;;9.98;2.83;;;;;;;13.02;75.58;101543.84;6272609;22;20004;-79
2022/05/29 08:07:54;;;;;;;10.18;2.75;;;;;;;13.09;74.53;101545.06;6245995;23;19995;-77
2022/05/29 08:10:22;;;;;;;6.97;2.70;;;;;;;13.20;71.80;101545.13;6240785;22;19984;-77
2022/05/29 08:12:47;;;;;;;6.72;2.42;;;;;;;13.36;74.32;101546.66;6272605;22;20052;-78
2022/05/29 08:15:13;;;;;;;7.35;2.45;;;;;;;13.72;71.40;101540.25;6272059;23;20039;-78
2022/05/29 08:17:39;;;;;;;7.50;2.72;;;;;;;13.87;71.55;101538.19;6274426;22;20008;-77
2022/05/29 08:20:06;;;;;;;5.05;2.30;;;;;;;14.09;70.85;101548.03;6272738;22;20004;-77
2022/05/29 08:22:31;;;;;;;12.13;2.63;;;;;;;14.33;70.49;101539.81;6271134;22;20013;-76
2022/05/29 08:30:38;;;;;;;5.95;2.20;;;;;;;15.03;64.88;101528.78;6273118;22;20048;-79
2022/05/29 08:33:05;;;;;;;9.45;2.42;;;;;;;15.53;64.76;101526.28;6250389;22;20027;-80
2022/05/29 08:35:32;;;;;;;7.93;2.20;;;;;;;15.88;64.72;101520.53;6274044;22;19992;-78
2022/05/29 08:38:01;;;;;;;6.47;2.10;;;;;;;16.14;61.96;101516.50;6272771;22;20004;-79
2022/05/29 08:40:29;;;;;;;8.50;2.30;;;;;;;16.22;59.77;101513.97;6273461;22;20083;-80
2022/05/29 08:42:54;;;;;;;8.68;2.15;;;;;;;16.37;61.19;101515.28;6273059;22;20020;-80
2022/05/29 08:45:20;;;;;;;8.93;2.30;;;;;;;16.54;61.94;101519.13;6273876;22;19992;-79
2022/05/29 08:47:49;;;;;;;8.85;2.72;;;;;;;16.42;59.00;101520.22;6246862;23;20008;-78
2022/05/29 08:50:24;;;;;;;7.90;2.60;;;;;;;16.27;60.90;101517.97;6271181;22;20014;-79
2022/05/29 08:53:03;;;;;;;7.07;2.17;;;;;;;16.36;60.92;101520.78;6269998;22;19989;-75
2022/05/29 08:55:49;;;;;;;13.27;2.28;;;;;;;16.64;59.46;101519.97;6258011;23;20008;-76
2022/05/29 08:58:20;;;;;;;9.95;1.95;;;;;;;16.95;56.24;101509.13;6254186;23;20302;-77
2022/05/29 09:01:05;;;;;;;8.55;2.35;;;;;;;17.02;57.82;101512.09;6226461;23;20321;-77
2022/05/29 09:03:51;;;;;;;11.05;2.30;;;;;;;17.27;57.09;101507.94;6252770;23;20358;-77
2022/05/29 09:06:23;;;;;;;9.10;2.03;;;;;;;17.17;55.37;101509.81;6260877;23;20020;-76
2022/05/29 09:09:14;;;;;;;6.93;1.98;;;;;;;17.22;55.43;101509.34;6264096;23;20000;-77
2022/05/29 09:11:48;;;;;;;9.45;1.90;;;;;;;16.91;56.23;101514.91;6255345;23;20042;-78
2022/05/29 09:14:41;;;;;;;9.15;1.98;;;;;;;16.79;57.42;101509.66;6257277;23;20000;-76
2022/05/29 09:17:31;;;;;;;7.20;2.20;;;;;;;16.75;57.08;101510.06;6258347;23;20092;-77
2022/05/29 09:20:13;;;;;;;4.95;2.10;;;;;;;16.71;56.42;101501.47;6260955;23;20429;-77
2022/05/29 09:22:45;;;;;;;7.05;2.05;;;;;;;16.76;57.07;101498.38;6261737;23;20014;-78
2022/05/29 09:25:33;;;;;;;5.22;1.55;;;;;;;16.79;58.19;101509.66;6237466;23;20026;-78
2022/05/29 09:28:10;;;;;;;7.95;1.52;;;;;;;16.79;56.03;101498.94;6262838;23;20022;-76
2022/05/29 09:30:38;;;;;;;7.20;1.70;;;;;;;16.75;54.76;101500.22;6259966;23;20213;-77
2022/05/29 09:33:29;;;;;;;4.30;1.70;;;;;;;16.90;56.90;101495.25;6262753;23;20008;-77
2022/05/29 09:36:12;;;;;;;3.47;1.48;;;;;;;16.97;56.21;101488.34;6262408;23;20004;-77
2022/05/29 09:38:51;;;;;;;8.82;1.92;;;;;;;16.84;54.39;101487.78;6270449;23;19984;-77
2022/05/29 09:41:37;;;;;;;5.07;1.92;;;;;;;16.80;56.14;101480.97;6271504;23;19992;-77
2022/05/29 09:44:05;;;;;;;6.50;1.70;;;;;;;16.57;53.97;101492.03;6272009;23;20056;-77
2022/05/29 09:46:36;;;;;;;6.03;1.70;;;;;;;16.82;56.19;101485.22;6270496;23;19999;-77
2022/05/29 09:52:01;;;;;;;5.97;2.17;;;;;;;17.66;53.19;101488.16;6271505;22;20071;-78
2022/05/29 09:54:30;;;;;;;6.03;1.73;;;;;;;18.12;53.25;101478.31;6273092;22;20000;-77
2022/05/29 09:57:21;;;;;;;6.65;2.08;;;;;;;18.40;51.91;101471.03;6246012;23;20365;-79
2022/05/29 09:59:50;;;;;;;4.70;1.50;;;;;;;18.72;52.08;101468.75;6271016;23;20019;-78
2022/05/29 10:02:27;;;;;;;5.00;1.73;;;;;;;18.88;51.03;101455.47;6268611;22;19996;-78
2022/05/29 10:04:56;;;;;;;5.18;1.83;;;;;;;19.13;48.34;101463.72;6270005;23;20020;-79
2022/05/29 10:07:34;;;;;;;5.10;1.77;;;;;;;19.45;50.34;101451.44;6267727;22;20008;-79
2022/05/29 10:10:05;;;;;;;6.50;1.83;;;;;;;19.76;47.84;101458.00;6266612;22;20031;-79
2022/05/29 10:12:37;;;;;;;5.30;1.85;;;;;;;19.87;46.37;101450.63;6264671;23;20012;-78
2022/05/29 10:15:04;;;;;;;5.60;1.85;;;;;;;20.05;46.87;101445.09;6263205;23;20039;-77
2022/05/29 10:17:29;;;;;;;5.68;1.90;;;;;;;20.28;46.08;101462.38;6262569;23;20004;-78
2022/05/29 10:19:55;;;;;;;13.93;3.30;;;;;;;19.87;53.38;101459.56;6262073;23;20197;-79
2022/05/29 10:22:31;;;;;;;7.10;2.42;;;;;;;19.60;53.91;101469.53;6259842;23;20035;-77
2022/05/29 10:24:57;;;;;;;6.85;2.00;;;;;;;19.29;55.09;101462.97;6264892;23;20472;-79
2022/05/29 10:27:31;;;;;;;5.47;2.00;;;;;;;19.07;54.23;101454.44;6259241;23;20008;-78
2022/05/29 10:30:00;;;;;;;4.18;1.92;;;;;;;18.75;52.68;101453.19;6262656;23;20066;-79
2022/05/29 10:32:30;;;;;;;6.65;1.75;;;;;;;18.59;53.87;101461.13;6268758;23;20012;-78
2022/05/29 10:35:18;;;;;;;6.45;1.70;;;;;;;18.53;55.39;101454.50;6272001;23;20055;-77
2022/05/29 10:37:45;;;;;;;3.97;1.50;;;;;;;18.39;54.43;101453.19;6275234;22;19992;-78
2022/05/29 10:40:27;;;;;;;4.68;1.20;;;;;;;18.15;53.77;101461.03;6274913;22;20250;-79
2022/05/29 10:43:00;;;;;;;4.05;2.08;;;;;;;17.55;57.77;101455.13;6275412;22;19993;-78
2022/05/29 10:45:31;;;;;;;6.65;1.85;;;;;;;17.34;56.46;101459.88;6275535;22;19988;-80
2022/05/29 10:48:03;;;;;;;6.15;2.20;;;;;;;16.86;59.15;101458.16;6275062;22;20024;-79
2022/05/29 10:50:59;;;;;;;9.65;2.40;;;;;;;16.66;60.01;101468.88;6273686;22;19988;-77
2022/05/29 10:53:36;;;;;;;11.80;3.22;;;;;;;16.46;60.28;101470.72;6267401;22;20012;-76
2022/05/29 10:56:10;;;;;;;19.95;3.85;;;;;;;16.08;61.45;101461.63;6260662;23;20008;-77
2022/05/29 10:59:03;;;;;;;10.88;2.58;;;;;;;15.89;60.27;101463.28;6254162;23;20075;-76
2022/05/29 11:05:28;;;;;;;7.07;1.95;;;;;;;15.53;65.95;101467.38;6133659;23;20033;-78
2022/05/29 11:08:19;;;;;;;6.03;1.83;;;;;;;15.54;63.24;101455.69;6139079;23;20002;-78
2022/05/29 11:11:09;;;;;;;8.02;2.13;;;;;;;15.37;64.96;101457.16;6262380;23;20000;-76
2022/05/29 11:13:56;;;;;;;6.45;1.90;;;;;;;15.26;65.34;101459.94;6265141;23;20008;-77
2022/05/29 11:16:48;;;;;;;7.50;1.98;;;;;;;15.30;64.65;101453.31;6267508;23;20015;-78
2022/05/29 11:19:35;;;;;;;3.58;2.30;;;;;;;15.34;65.27;101452.06;6235623;23;20011;-78
2022/05/29 11:22:42;;;;;;;9.07;2.42;;;;;;;15.36;63.79;101456.31;6265605;22;20012;-79
2022/05/29 11:25:26;;;;;;;7.57;1.92;;;;;;;15.18;65.63;101463.25;6262164;23;20000;-76
2022/05/29 11:28:16;;;;;;;4.40;1.85;;;;;;;15.13;65.77;101468.16;6267697;23;20058;-78
2022/05/29 11:30:51;;;;;;;5.30;1.60;;;;;;;14.94;67.76;101453.69;6271992;23;20060;-78
2022/05/29 11:33:48;;;;;;;4.65;1.60;;;;;;;14.85;65.77;101465.16;6270356;23;20087;-77
2022/05/29 11:36:33;;;;;;;2.75;1.30;;;;;;;14.61;66.87;101460.91;6268316;23;19999;-78
2022/05/29 11:39:07;;;;;;;3.33;1.40;;;;;;;14.46;66.36;101466.69;6266015;23;20004;-77
2022/05/29 11:41:40;;;;;;;4.18;1.58;;;;;;;14.41;67.36;101469.72;6259802;23;20063;-78
2022/05/29 11:44:41;;;;;;;4.10;1.33;;;;;;;14.46;66.27;101466.69;6259783;23;20330;-77
2022/05/29 11:53:14;;;;;;;3.80;1.10;;;;;;;14.03;67.38;101455.00;6263741;22;20046;-80
2022/05/29 11:55:42;;;;;;;6.00;2.08;;;;;;;13.82;68.97;101452.25;6250018;23;20000;-78
2022/05/29 11:58:15;;;;;;;3.38;1.20;;;;;;;13.77;69.94;101455.31;6252414;23;20008;-82
2022/05/29 12:00:44;;;;;;;2.65;1.10;;;;;;;13.75;70.14;101456.41;6254548;23;20384;-80
2022/05/29 12:03:16;;;;;;;2.53;1.05;;;;;;;13.76;69.67;101450.94;6261277;23;20004;-80
2022/05/29 12:05:48;;;;;;;3.42;1.30;;;;;;;13.78;71.50;101448.16;6255776;23;20012;-78
2022/05/29 12:08:24;;;;;;;4.30;1.33;;;;;;;13.86;71.42;101451.88;6227980;23;20066;-79
2022/05/29 12:11:01;;;;;;;2.67;1.10;;;;;;;13.99;71.10;101446.41;6267142;23;20004;-78
2022/05/29 12:13:33;;;;;;;3.72;1.25;;;;;;;14.12;70.57;101446.25;6255690;23;20008;-76
2022/05/29 12:16:04;;;;;;;5.78;1.20;;;;;;;14.19;69.91;101441.25;6249733;23;20000;-77
2022/05/29 12:18:40;;;;;;;4.22;1.10;;;;;;;14.19;68.26;101444.78;6249861;23;20008;-76
2022/05/29 12:21:07;;;;;;;2.03;0.90;;;;;;;14.22;68.10;101438.31;6250236;23;20000;-77
2022/05/29 12:23:40;;;;;;;2.05;1.38;;;;;;;14.27;68.62;101436.09;6253300;23;20035;-77
2022/05/29 12:26:10;;;;;;;2.78;1.27;;;;;;;14.33;70.22;101430.25;6254689;23;20046;-77
2022/05/29 12:28:53;;;;;;;4.15;1.23;;;;;;;14.35;68.62;101422.13;6255902;23;20019;-78